Airfield :
LOGIN :

Register | Disclaimer

   EN    FR    IT 

 










Legend :    VFR   Marginal VFR   IFR   Intensive IFR   Very Intensive IFR
Visi :
Ceiling :
>= 8 km
>= 3000ft
5 to 8 km
1000 to 3000 ft
1500m to 5 km
500 to 1000 ft
800 to 1500m
200 to 500 ft
< 800m
< 200 ft
Symbols :   Thunderstorms  Fog  Heavy snow  Heavy precipitations  Wind > 20 kt
SIGMETs :     Misc.  Thunderstorms  Icing  Turbulence  Mountain Waves  Volcanic Ashes






- Airport Elevation : 357 ft
- IATA code : TUF


LFOT - Tours

CURRENT METAR :
  • 120530Z AUTO 21006KT 9999 FEW036 SCT150 BKN170 02/01 Q1008 NOSIG

EXPIRED METARs :
  • 120500Z AUTO 19004KT 170V230 CAVOK 02/01 Q1009 NOSIG
  • 120430Z AUTO 19004KT CAVOK 02/01 Q1009 BECMG 25010KT
  • 120400Z AUTO 23005KT CAVOK 02/01 Q1009 NOSIG
  • 120330Z AUTO 23006KT CAVOK 02/01 Q1009 NOSIG
  • 120300Z AUTO 24007KT CAVOK 02/01 Q1010 NOSIG
  • 120230Z AUTO 23007KT CAVOK 02/01 Q1010 NOSIG

TAF TAF LFOT
Valid from the 12 at 00:00 until the 13 at 00:00 UTC


112300Z 1200/1224 25010KT CAVOK
BECMG 1208/1211 18012KT BKN014
TEMPO 1213/1220 18015G30KT
TEMPO 1214/1217 3000 RA BKN008
BECMG 1217/1219 25013KT SCT030
TEMPO 1222/1224 3000 RA BKN008



MET'MAP, your aeronautical weather chart ! - Copyright ORBIFLY December 2007 - Disclaimer

ORBIFLY MET'MAP TEAM :

Programming & Development : Alexandra Zaïnal
Concept & original design : Baudouin d'Aumeries
Assistance for programming : Marc-Olivier Méhu
Technical & hardware support : Manuel Goepfert

Contact : metmap@orbifly.com




SOURCES & CREDITS :

   NOAA